createdAt,value
2023-05-01T00:03:44.389Z,9.13
2023-05-01T00:08:46.586Z,9.13
2023-05-01T00:13:48.306Z,6.70
2023-05-01T00:18:50.490Z,10.60
2023-05-01T00:23:52.205Z,7.95
2023-05-01T00:28:54.159Z,10.13
2023-05-01T00:33:56.341Z,10.10
2023-05-01T00:38:58.199Z,7.78
2023-05-01T00:44:00.586Z,6.90
2023-05-01T00:49:02.800Z,6.78
2023-05-01T00:54:06.033Z,7.50
2023-05-01T00:59:07.856Z,5.78
2023-05-01T01:04:09.720Z,7.73
2023-05-01T01:09:50.887Z,7.00
2023-05-01T01:15:01.981Z,6.25
2023-05-01T01:20:18.904Z,8.00
2023-05-01T01:25:43.535Z,7.50
2023-05-01T01:31:09.334Z,8.00
2023-05-01T01:36:18.868Z,7.80
2023-05-01T01:41:26.132Z,7.70
2023-05-01T01:46:33.889Z,6.40
2023-05-01T01:51:40.666Z,8.98
2023-05-01T01:56:46.004Z,7.28
2023-05-01T02:01:50.676Z,8.93
2023-05-01T02:06:57.171Z,7.63
2023-05-01T02:12:01.737Z,11.57
2023-05-01T02:17:04.783Z,8.23
2023-05-01T02:22:07.545Z,6.60
2023-05-01T02:27:32.718Z,6.85
2023-05-01T02:32:34.450Z,9.88
2023-05-01T02:37:37.955Z,9.13
2023-05-01T02:42:43.668Z,7.90
2023-05-01T02:47:50.468Z,8.55
2023-05-01T02:52:52.900Z,10.07
2023-05-01T02:58:07.647Z,8.13
2023-05-01T03:03:09.454Z,8.82
2023-05-01T03:08:13.423Z,7.80
2023-05-01T03:13:15.091Z,7.20
2023-05-01T03:18:16.722Z,6.40
2023-05-01T03:23:18.383Z,6.90
2023-05-01T03:28:21.729Z,10.10
2023-05-01T03:33:25.448Z,8.32
2023-05-01T03:38:27.920Z,6.15
2023-05-01T03:43:44.939Z,7.43
2023-05-01T03:49:04.016Z,9.05
2023-05-01T03:54:10.557Z,7.50
2023-05-01T03:59:29.691Z,7.95
2023-05-01T04:04:31.428Z,6.70
2023-05-01T04:09:33.832Z,8.60
2023-05-01T04:14:35.720Z,8.80
2023-05-01T04:19:38.954Z,7.10
2023-05-01T04:24:40.784Z,7.43
2023-05-01T04:29:43.482Z,8.30
2023-05-01T04:34:45.373Z,7.17
2023-05-01T04:39:47.209Z,9.23
2023-05-01T04:44:49.189Z,7.15
2023-05-01T04:49:51.579Z,8.80
2023-05-01T04:54:53.465Z,7.77
2023-05-01T04:59:58.354Z,8.18
2023-05-01T05:05:00.568Z,9.77
2023-05-01T05:10:02.357Z,10.02
2023-05-01T05:20:07.908Z,6.97
2023-05-01T05:30:11.850Z,9.30
2023-05-01T05:35:14.332Z,10.35
2023-05-01T05:40:16.433Z,10.20
2023-05-01T05:45:34.359Z,9.60
2023-05-01T05:50:36.499Z,8.85
2023-05-01T05:55:38.611Z,10.02
2023-05-01T06:00:42.018Z,10.70
2023-05-01T06:05:44.142Z,11.70
2023-05-01T06:10:46.273Z,12.50
2023-05-01T06:15:48.980Z,11.32
2023-05-01T06:20:52.175Z,10.13
2023-05-01T06:25:53.985Z,9.45
2023-05-01T06:30:55.986Z,10.35
2023-05-01T06:35:59.872Z,10.55
2023-05-01T06:41:01.637Z,12.27
2023-05-01T06:46:04.365Z,9.38
2023-05-01T06:51:06.123Z,13.25
2023-05-01T06:56:08.853Z,14.13
2023-05-01T07:01:10.847Z,10.98
2023-05-01T07:06:12.601Z,10.13
2023-05-01T07:11:14.891Z,14.35
2023-05-01T07:16:16.749Z,9.23
2023-05-01T07:21:18.878Z,11.35
2023-05-01T07:26:20.899Z,10.97
2023-05-01T07:31:22.833Z,9.52
2023-05-01T07:36:24.736Z,12.30
2023-05-01T07:41:26.708Z,10.17
2023-05-01T07:46:28.487Z,8.90
2023-05-01T07:51:30.853Z,9.63
2023-05-01T07:56:33.074Z,10.63
2023-05-01T08:01:36.436Z,8.03
2023-05-01T08:06:38.266Z,12.52
2023-05-01T08:11:40.243Z,10.20
2023-05-01T08:16:42.121Z,8.47
2023-05-01T08:21:43.795Z,10.18
2023-05-01T08:26:45.826Z,10.10
2023-05-01T08:31:47.606Z,11.23
2023-05-01T08:36:52.124Z,11.38
2023-05-01T08:41:54.210Z,18.50
2023-05-01T08:47:06.478Z,9.98
2023-05-01T08:52:11.533Z,11.70
2023-05-01T08:57:13.870Z,10.07
2023-05-01T09:02:16.034Z,11.52
2023-05-01T09:07:17.888Z,9.03
2023-05-01T09:12:27.230Z,11.90
2023-05-01T09:17:31.767Z,9.52
2023-05-01T09:22:34.566Z,10.77
2023-05-01T09:27:37.290Z,8.65
2023-05-01T09:37:49.569Z,11.73
2023-05-01T09:42:52.963Z,10.43
2023-05-01T09:48:10.777Z,11.73
2023-05-01T09:53:13.812Z,10.73
2023-05-01T10:03:30.604Z,12.93
2023-05-01T10:08:49.431Z,15.55
2023-05-01T10:14:09.697Z,16.05
2023-05-01T10:19:12.617Z,15.30
2023-05-01T10:24:16.770Z,17.25
2023-05-01T10:29:23.541Z,15.15
2023-05-01T10:34:28.249Z,15.77
2023-05-01T10:39:34.461Z,15.50
2023-05-01T10:44:36.652Z,18.60
2023-05-01T10:50:08.717Z,19.33
2023-05-01T10:55:33.659Z,21.17
2023-05-01T11:00:35.396Z,24.95
2023-05-01T11:06:05.378Z,18.02
2023-05-01T11:11:19.449Z,19.25
2023-05-01T11:16:42.344Z,22.23
2023-05-01T11:26:47.327Z,19.10
2023-05-01T11:31:49.141Z,19.20
2023-05-01T11:36:52.265Z,18.57
2023-05-01T11:42:09.887Z,18.05
2023-05-01T11:47:12.149Z,22.27
2023-05-01T11:52:13.921Z,17.83
2023-05-01T11:57:16.051Z,19.52
2023-05-01T12:02:21.116Z,20.70
2023-05-01T12:07:23.758Z,18.15
2023-05-01T12:12:26.369Z,16.58
2023-05-01T12:17:30.431Z,17.00
2023-05-01T12:22:32.123Z,17.15
2023-05-01T12:27:43.150Z,17.77
2023-05-01T12:32:45.058Z,16.58
2023-05-01T12:37:46.950Z,18.10
2023-05-01T12:42:58.414Z,17.60
2023-05-01T12:48:00.266Z,15.95
2023-05-01T12:53:03.043Z,19.17
2023-05-01T13:03:07.088Z,13.77
2023-05-01T13:08:08.970Z,17.00
2023-05-01T13:13:10.684Z,16.13
2023-05-01T13:18:13.351Z,16.13
2023-05-01T13:23:15.539Z,15.95
2023-05-01T13:28:20.822Z,18.07
2023-05-01T13:33:22.524Z,16.80
2023-05-01T13:38:25.091Z,19.38
2023-05-01T13:43:27.531Z,18.98
2023-05-01T13:48:30.979Z,18.52
2023-05-01T13:53:33.320Z,17.95
2023-05-01T13:58:36.336Z,17.80
2023-05-01T14:08:43.247Z,16.83
2023-05-01T14:13:46.532Z,20.77
2023-05-01T14:18:48.710Z,18.77
2023-05-01T14:23:52.983Z,19.20
2023-05-01T14:28:55.525Z,16.35
2023-05-01T14:34:01.698Z,19.10
2023-05-01T14:39:05.414Z,17.25
2023-05-01T14:44:12.625Z,18.67
2023-05-01T14:49:24.995Z,17.92
2023-05-01T14:54:26.745Z,16.70
2023-05-01T14:59:28.349Z,21.85
2023-05-01T15:04:30.103Z,17.92
2023-05-01T15:09:31.966Z,17.10
2023-05-01T15:14:33.651Z,19.77
2023-05-01T15:19:35.418Z,16.02
2023-05-01T15:24:37.315Z,19.10
2023-05-01T15:29:39.138Z,19.15
2023-05-01T15:34:42.613Z,17.90
2023-05-01T15:39:44.429Z,18.45
2023-05-01T15:44:47.631Z,18.52
2023-05-01T15:49:49.875Z,16.55
2023-05-01T15:54:51.982Z,17.45
2023-05-01T15:59:55.838Z,17.70
2023-05-01T16:04:57.838Z,18.52
2023-05-01T16:10:00.118Z,17.53
2023-05-01T16:15:03.776Z,17.27
2023-05-01T16:20:14.012Z,18.73
2023-05-01T16:25:16.576Z,19.02
2023-05-01T16:30:18.482Z,23.40
2023-05-01T16:35:27.530Z,24.90
2023-05-01T16:40:29.265Z,22.55
2023-05-01T16:45:32.169Z,18.92
2023-05-01T16:50:34.140Z,16.55
2023-05-01T16:55:36.162Z,16.98
2023-05-01T17:00:37.824Z,19.10
2023-05-01T17:05:39.511Z,17.63
2023-05-01T17:10:41.150Z,18.70
2023-05-01T17:15:43.046Z,19.40
2023-05-01T17:20:44.867Z,20.67
2023-05-01T17:25:46.555Z,19.48
2023-05-01T17:30:48.334Z,19.77
2023-05-01T17:35:50.736Z,18.67
2023-05-01T17:40:52.749Z,18.73
2023-05-01T17:45:54.501Z,20.00
2023-05-01T17:50:56.619Z,20.75
2023-05-01T17:55:58.307Z,17.87
2023-05-01T18:01:00.700Z,22.05
2023-05-01T18:06:02.742Z,19.83
2023-05-01T18:11:04.559Z,18.73
2023-05-01T18:16:06.370Z,17.80
2023-05-01T18:21:08.165Z,23.23
2023-05-01T18:26:09.951Z,19.90
2023-05-01T18:31:11.677Z,16.60
2023-05-01T18:36:13.454Z,21.48
2023-05-01T18:41:15.141Z,18.50
2023-05-01T18:46:17.153Z,21.40
2023-05-01T18:51:18.930Z,18.57
2023-05-01T18:56:20.996Z,19.35
2023-05-01T19:01:23.382Z,19.30
2023-05-01T19:06:26.311Z,19.60
2023-05-01T19:11:31.569Z,18.92
2023-05-01T19:16:33.499Z,18.67
2023-05-01T19:21:35.819Z,20.00
2023-05-01T19:26:37.602Z,18.65
2023-05-01T19:31:39.364Z,18.25
2023-05-01T19:36:41.142Z,18.58
2023-05-01T19:41:42.821Z,17.65
2023-05-01T19:46:45.080Z,14.10
2023-05-01T19:51:46.988Z,14.75
2023-05-01T19:56:51.510Z,13.00
2023-05-01T20:01:53.643Z,12.48
2023-05-01T20:06:55.664Z,13.23
2023-05-01T20:11:57.312Z,15.60
2023-05-01T20:16:59.053Z,11.95
2023-05-01T20:22:01.079Z,11.73
2023-05-01T20:27:04.435Z,11.97
2023-05-01T20:32:06.356Z,12.30
2023-05-01T20:37:08.053Z,11.63
2023-05-01T20:42:10.078Z,13.03
2023-05-01T20:47:13.900Z,14.77
2023-05-01T20:52:15.539Z,13.50
2023-05-01T20:57:17.283Z,13.45
2023-05-01T21:02:19.115Z,14.10
2023-05-01T21:07:21.304Z,14.32
2023-05-01T21:12:23.060Z,11.65
2023-05-01T21:17:24.780Z,10.23
2023-05-01T21:22:26.710Z,11.13
2023-05-01T21:27:28.340Z,10.03
2023-05-01T21:32:32.926Z,11.20
2023-05-01T21:37:34.740Z,10.38
2023-05-01T21:42:39.129Z,10.68
2023-05-01T21:47:47.304Z,11.35
2023-05-01T21:52:49.841Z,10.00
2023-05-01T21:57:51.862Z,11.68
2023-05-01T22:02:53.939Z,11.07
2023-05-01T22:07:55.712Z,12.40
2023-05-01T22:12:57.348Z,12.52
2023-05-01T22:17:59.247Z,11.15
2023-05-01T22:23:01.469Z,12.40
2023-05-01T22:28:05.527Z,14.75
2023-05-01T22:33:07.434Z,13.13
2023-05-01T22:38:09.524Z,15.32
2023-05-01T22:43:11.265Z,17.25
2023-05-01T22:48:12.944Z,13.00
2023-05-01T22:53:14.787Z,15.50
2023-05-01T22:58:16.481Z,15.40
2023-05-01T23:03:18.448Z,15.85
2023-05-01T23:08:20.184Z,17.07
2023-05-01T23:13:23.592Z,14.70
2023-05-01T23:18:31.757Z,15.43
2023-05-01T23:23:35.661Z,18.60
2023-05-01T23:28:42.286Z,20.20
2023-05-01T23:33:44.060Z,13.98
2023-05-01T23:38:47.142Z,14.00
2023-05-01T23:43:48.887Z,16.92
2023-05-01T23:48:50.672Z,14.48
2023-05-01T23:53:52.485Z,15.85
2023-05-01T23:58:54.456Z,18.17
